Terminal Aerodrome Forecast
Issued by NWS Tallahassee, FL

Home | Current Version | Previous Version | Text Only | Print | Product List | Glossary On
Versions: 1 2 3 4 5 6 7 8 9 10 11 12 13 14 15 16 17 18 19 20
933
FTUS42 KTAE 230520
TAFTLH
TAF
KTLH 230520Z 2306/2406 04007KT P6SM FEW025
     FM230800 04006KT P6SM BKN015
     FM231000 04006KT 6SM BR BKN005
     FM231400 05008KT P6SM SCT010 BKN015
     FM231500 05008KT P6SM SCT040
     FM231800 05009KT P6SM SCT100=

USA.gov is the U.S. government's official web portal to all federal, state and local government web resources and services.